Time;durP1;ratioP1;P1;durP2;ratioP2;P2;SDS_P1;SDS_P2;PMS_P1;PMS_P2;Temp;Humidity;BMP_temperature;BMP_pressure;BME280_temperature;BME280_humidity;BME280_pressure;Samples;Min_cycle;Max_cycle;Signal;HPM_P1;HPM_P2
2024/01/25 00:01:07;;;;;;;13.20;12.10;;;8.90;99.90;;;;;;5048911;28;20223;-81
2024/01/25 00:03:34;;;;;;;12.90;11.70;;;8.90;99.90;;;;;;5048788;28;20234;-81
2024/01/25 00:06:02;;;;;;;12.57;11.17;;;8.90;99.90;;;;;;5042106;28;20705;-81
2024/01/25 00:08:29;;;;;;;12.40;11.40;;;8.90;99.90;;;;;;5049239;28;20277;-81
2024/01/25 00:10:55;;;;;;;12.33;11.33;;;8.80;99.90;;;;;;5046012;28;20248;-81
2024/01/25 00:13:22;;;;;;;12.23;11.30;;;8.90;99.90;;;;;;5049582;28;20192;-82
2024/01/25 00:15:49;;;;;;;13.50;12.40;;;8.90;99.90;;;;;;5041364;28;20238;-81
2024/01/25 00:18:16;;;;;;;12.77;11.70;;;8.80;99.90;;;;;;5037850;28;20228;-81
2024/01/25 00:20:42;;;;;;;12.77;11.67;;;8.90;99.90;;;;;;5040694;28;20201;-81
2024/01/25 00:23:10;;;;;;;13.13;12.23;;;8.90;99.90;;;;;;5042198;28;20230;-81
2024/01/25 00:25:37;;;;;;;13.00;11.80;;;8.90;99.90;;;;;;5030700;28;20669;-81
2024/01/25 00:28:05;;;;;;;12.83;11.73;;;8.90;99.90;;;;;;5049513;28;20599;-81
2024/01/25 00:30:31;;;;;;;12.60;11.73;;;8.80;99.90;;;;;;5045052;28;20199;-81
2024/01/25 00:32:58;;;;;;;12.67;11.77;;;8.90;99.90;;;;;;5043257;28;20234;-81
2024/01/25 00:35:26;;;;;;;12.40;11.30;;;8.80;99.90;;;;;;5037099;28;20635;-81
2024/01/25 00:37:53;;;;;;;12.50;11.50;;;8.90;99.90;;;;;;5039953;28;20710;-81
2024/01/25 00:40:22;;;;;;;12.27;11.27;;;8.90;99.90;;;;;;5037181;28;20231;-81
2024/01/25 00:42:53;;;;;;;12.23;11.23;;;8.80;99.90;;;;;;5039582;28;20611;-81
2024/01/25 00:45:20;;;;;;;12.20;11.40;;;8.80;99.90;;;;;;5037972;28;20286;-81
2024/01/25 00:47:47;;;;;;;12.83;11.63;;;8.80;99.90;;;;;;5038353;28;20662;-81
2024/01/25 00:50:17;;;;;;;12.90;11.63;;;8.80;99.90;;;;;;5047390;28;20261;-81
2024/01/25 00:52:44;;;;;;;12.33;11.33;;;8.80;99.90;;;;;;5032502;28;20227;-81
2024/01/25 00:55:12;;;;;;;12.43;11.43;;;8.80;99.90;;;;;;5039121;28;20436;-81
2024/01/25 00:57:41;;;;;;;12.33;11.33;;;8.80;99.90;;;;;;5042598;28;20443;-81
2024/01/25 01:00:08;;;;;;;11.53;10.70;;;8.80;99.90;;;;;;5049289;28;20202;-81
2024/01/25 01:02:39;;;;;;;12.87;11.57;;;8.80;99.90;;;;;;5038644;28;20200;-81
2024/01/25 01:05:07;;;;;;;12.30;11.23;;;8.80;99.90;;;;;;5031783;28;20678;-81
2024/01/25 01:07:34;;;;;;;12.07;11.17;;;8.80;99.90;;;;;;5033820;28;20702;-81
2024/01/25 01:10:01;;;;;;;12.73;11.60;;;8.80;99.90;;;;;;5040022;28;20204;-81
2024/01/25 01:12:28;;;;;;;11.90;11.00;;;8.80;99.90;;;;;;5046025;28;20265;-81
2024/01/25 01:14:56;;;;;;;13.40;12.10;;;8.80;99.90;;;;;;5031389;28;20204;-81
2024/01/25 01:17:23;;;;;;;12.20;11.20;;;8.80;99.90;;;;;;5046642;28;20200;-81
2024/01/25 01:19:50;;;;;;;12.07;11.20;;;8.80;99.90;;;;;;5050787;28;20250;-81
2024/01/25 01:22:16;;;;;;;12.10;11.10;;;8.90;99.90;;;;;;5044256;28;20207;-81
2024/01/25 01:24:43;;;;;;;12.63;11.73;;;8.80;99.90;;;;;;5036437;28;20547;-81
2024/01/25 01:27:10;;;;;;;12.93;11.83;;;8.80;99.90;;;;;;5040917;28;20667;-81
2024/01/25 01:29:37;;;;;;;12.07;11.27;;;8.90;99.90;;;;;;5040060;28;20219;-81
2024/01/25 01:32:05;;;;;;;12.60;11.60;;;8.90;99.90;;;;;;5036372;28;20196;-81
2024/01/25 01:34:32;;;;;;;13.97;12.73;;;8.90;99.90;;;;;;5029110;28;20215;-81
2024/01/25 01:36:59;;;;;;;12.57;11.37;;;8.90;99.90;;;;;;5048721;28;20616;-81
2024/01/25 01:39:26;;;;;;;12.30;11.33;;;8.90;99.90;;;;;;5037048;28;20220;-81
2024/01/25 01:41:52;;;;;;;13.20;11.50;;;8.90;99.90;;;;;;5041222;28;20203;-81
2024/01/25 01:44:20;;;;;;;12.97;11.80;;;8.90;99.90;;;;;;5035544;28;20674;-81
2024/01/25 01:46:47;;;;;;;11.80;10.90;;;8.90;99.90;;;;;;5042904;28;20578;-81
2024/01/25 01:49:16;;;;;;;12.43;11.37;;;8.90;99.90;;;;;;5035630;28;20649;-81
2024/01/25 01:51:43;;;;;;;12.60;11.47;;;8.90;99.90;;;;;;5042807;28;20260;-81
2024/01/25 01:54:10;;;;;;;12.47;11.47;;;8.90;99.90;;;;;;5045606;28;20204;-81
2024/01/25 01:56:39;;;;;;;12.57;11.57;;;8.90;99.90;;;;;;5041659;28;20192;-81
2024/01/25 01:59:10;;;;;;;12.33;11.13;;;8.90;99.90;;;;;;5039090;28;20224;-81
2024/01/25 02:01:37;;;;;;;12.47;11.50;;;8.90;99.90;;;;;;5029764;28;20209;-81
2024/01/25 02:04:04;;;;;;;12.37;11.27;;;8.80;99.90;;;;;;5041778;28;20199;-81
2024/01/25 02:06:33;;;;;;;11.63;10.73;;;8.80;99.90;;;;;;5038823;28;20250;-81
2024/01/25 02:08:59;;;;;;;11.70;10.80;;;8.80;99.90;;;;;;5038682;28;20301;-81
2024/01/25 02:11:26;;;;;;;12.10;11.03;;;8.80;99.90;;;;;;5039873;28;20195;-81
2024/01/25 02:13:53;;;;;;;12.40;11.40;;;8.80;99.90;;;;;;5032474;28;20188;-81
2024/01/25 02:16:20;;;;;;;12.83;11.37;;;8.80;99.90;;;;;;5042185;28;20255;-81
2024/01/25 02:18:47;;;;;;;12.37;11.37;;;8.80;99.90;;;;;;5044621;28;20227;-81
2024/01/25 02:21:14;;;;;;;11.70;11.00;;;8.80;99.90;;;;;;5039198;28;20200;-79
2024/01/25 02:23:42;;;;;;;12.73;11.53;;;8.80;99.90;;;;;;5040399;28;20242;-78
2024/01/25 02:26:09;;;;;;;11.83;10.97;;;8.80;99.90;;;;;;5039514;28;20219;-81
2024/01/25 02:28:35;;;;;;;11.83;10.97;;;8.80;99.90;;;;;;5040368;28;20635;-81
2024/01/25 02:31:03;;;;;;;11.80;10.90;;;8.80;99.90;;;;;;5043820;28;20248;-81
2024/01/25 02:33:29;;;;;;;12.13;11.07;;;8.80;99.90;;;;;;5040718;28;20290;-81
2024/01/25 02:35:56;;;;;;;11.70;10.70;;;8.80;99.90;;;;;;5037379;28;20207;-81
2024/01/25 02:38:23;;;;;;;12.20;11.17;;;8.80;99.90;;;;;;5043174;28;20261;-81
2024/01/25 02:40:53;;;;;;;12.50;11.20;;;8.80;99.90;;;;;;5043566;28;20207;-81
2024/01/25 02:43:20;;;;;;;12.00;11.07;;;8.80;99.90;;;;;;5041794;28;20207;-81
2024/01/25 02:45:48;;;;;;;12.13;11.13;;;8.90;99.90;;;;;;5040816;28;20219;-80
2024/01/25 02:48:15;;;;;;;12.50;11.40;;;8.90;99.90;;;;;;5045764;28;20218;-81
2024/01/25 02:50:41;;;;;;;12.17;11.20;;;8.90;99.90;;;;;;5040948;28;20192;-81
2024/01/25 02:53:08;;;;;;;12.53;11.40;;;8.90;99.90;;;;;;5037661;28;20210;-81
2024/01/25 02:55:35;;;;;;;12.90;11.57;;;8.90;99.90;;;;;;5038524;28;20241;-81
2024/01/25 02:58:03;;;;;;;12.50;11.60;;;8.90;99.90;;;;;;5037866;28;20211;-81
2024/01/25 03:00:30;;;;;;;12.73;11.73;;;8.90;99.90;;;;;;5040796;28;20204;-81
2024/01/25 03:02:57;;;;;;;12.37;11.07;;;8.80;99.90;;;;;;5031197;28;20224;-81
2024/01/25 03:05:24;;;;;;;12.90;11.60;;;8.80;99.90;;;;;;5046021;28;20257;-81
2024/01/25 03:07:51;;;;;;;12.80;11.60;;;8.80;99.90;;;;;;5033815;28;20710;-79
2024/01/25 03:10:17;;;;;;;12.23;11.43;;;8.70;99.90;;;;;;5037436;28;20387;-78
2024/01/25 03:12:44;;;;;;;12.27;11.27;;;8.70;99.90;;;;;;5045010;28;20190;-79
2024/01/25 03:15:13;;;;;;;13.10;12.00;;;8.70;99.90;;;;;;5045897;28;20226;-79
2024/01/25 03:17:39;;;;;;;12.57;11.50;;;8.70;99.90;;;;;;5042419;28;20218;-82
2024/01/25 03:20:08;;;;;;;14.57;13.00;;;8.70;99.90;;;;;;5047424;28;20249;-82
2024/01/25 03:22:34;;;;;;;14.77;12.97;;;8.70;99.90;;;;;;5045421;28;20188;-81
2024/01/25 03:25:01;;;;;;;15.90;14.20;;;8.60;99.90;;;;;;5038866;28;20227;-81
2024/01/25 03:27:28;;;;;;;14.50;13.27;;;8.70;99.90;;;;;;5037916;28;20203;-81
2024/01/25 03:29:55;;;;;;;13.97;12.77;;;8.70;99.90;;;;;;5046883;28;20661;-82
2024/01/25 03:32:23;;;;;;;14.53;13.13;;;8.70;99.90;;;;;;5037774;28;20250;-81
2024/01/25 03:34:50;;;;;;;13.47;12.30;;;8.70;99.90;;;;;;5043316;28;20219;-81
2024/01/25 03:37:17;;;;;;;13.87;12.67;;;8.70;99.90;;;;;;5042291;28;20211;-81
2024/01/25 03:39:44;;;;;;;14.47;13.00;;;8.70;99.90;;;;;;5029453;28;20222;-81
2024/01/25 03:42:11;;;;;;;14.00;12.80;;;8.70;99.90;;;;;;5042534;28;20231;-81
2024/01/25 03:44:38;;;;;;;14.67;13.20;;;8.70;99.90;;;;;;5047875;28;20200;-81
2024/01/25 03:47:05;;;;;;;12.87;11.93;;;8.70;99.90;;;;;;5048387;28;20200;-81
2024/01/25 03:49:33;;;;;;;14.63;13.17;;;8.70;99.90;;;;;;5038071;28;20285;-82
2024/01/25 03:52:03;;;;;;;13.63;12.50;;;8.70;99.90;;;;;;5031698;28;20204;-83
2024/01/25 03:54:30;;;;;;;13.90;12.70;;;8.60;99.90;;;;;;5036888;28;20258;-84
2024/01/25 03:56:57;;;;;;;13.50;12.40;;;8.60;99.90;;;;;;5041077;28;20204;-83
2024/01/25 03:59:24;;;;;;;13.27;12.27;;;8.60;99.90;;;;;;5028558;28;20760;-83
2024/01/25 04:01:50;;;;;;;13.83;12.53;;;8.60;99.90;;;;;;5032047;28;20193;-84
2024/01/25 04:04:17;;;;;;;13.90;12.73;;;8.60;99.90;;;;;;5028547;28;20203;-84
2024/01/25 04:06:46;;;;;;;13.20;12.20;;;8.60;99.90;;;;;;5033922;28;20204;-84
2024/01/25 04:09:15;;;;;;;13.27;12.17;;;8.60;99.90;;;;;;5030727;28;21328;-84
2024/01/25 04:11:42;;;;;;;13.03;11.87;;;8.60;99.90;;;;;;5042331;28;20606;-84
2024/01/25 04:14:09;;;;;;;12.87;11.97;;;8.60;99.90;;;;;;5035362;28;20200;-82
2024/01/25 04:16:36;;;;;;;13.10;12.10;;;8.60;99.90;;;;;;5042833;28;20622;-81
2024/01/25 04:19:02;;;;;;;12.87;11.93;;;8.60;99.90;;;;;;5047551;28;20231;-83
2024/01/25 04:21:29;;;;;;;12.80;11.90;;;8.60;99.90;;;;;;5047033;28;20196;-84
2024/01/25 04:23:57;;;;;;;13.17;12.17;;;8.60;99.90;;;;;;5041444;28;20196;-84
2024/01/25 04:26:24;;;;;;;13.40;12.50;;;8.60;99.90;;;;;;5045453;28;20215;-79
2024/01/25 04:28:51;;;;;;;13.10;12.20;;;8.60;99.90;;;;;;5039674;28;20637;-82
2024/01/25 04:31:19;;;;;;;13.43;12.33;;;8.50;99.90;;;;;;5043755;28;20191;-79
2024/01/25 04:33:46;;;;;;;13.10;12.03;;;8.50;99.90;;;;;;5050332;28;20195;-79
2024/01/25 04:36:13;;;;;;;13.87;12.63;;;8.50;99.90;;;;;;5048751;28;20242;-80
2024/01/25 04:38:40;;;;;;;12.87;11.80;;;8.50;99.90;;;;;;5043399;28;20265;-81
2024/01/25 04:41:08;;;;;;;12.60;11.60;;;8.50;99.90;;;;;;5048511;28;20187;-80
2024/01/25 04:43:36;;;;;;;13.40;12.20;;;8.50;99.90;;;;;;5041787;28;20200;-80
2024/01/25 04:46:03;;;;;;;12.57;11.77;;;8.50;99.90;;;;;;5046918;28;20235;-80
2024/01/25 04:48:30;;;;;;;13.03;12.13;;;8.40;99.90;;;;;;5040619;28;20744;-80
2024/01/25 04:50:57;;;;;;;12.90;12.10;;;8.40;99.90;;;;;;5044539;28;20253;-81
2024/01/25 04:53:24;;;;;;;13.53;12.53;;;8.50;99.90;;;;;;5042565;28;20685;-80
2024/01/25 04:55:51;;;;;;;13.50;12.60;;;8.40;99.90;;;;;;5040332;28;20273;-80
2024/01/25 04:58:19;;;;;;;13.77;12.63;;;8.40;99.90;;;;;;5045108;28;20226;-80
2024/01/25 05:00:45;;;;;;;14.47;13.13;;;8.40;99.90;;;;;;5039877;28;20188;-80
2024/01/25 05:03:12;;;;;;;13.13;12.23;;;8.40;99.90;;;;;;5046734;28;20223;-80
2024/01/25 05:05:39;;;;;;;13.30;12.40;;;8.30;99.90;;;;;;5045364;28;20200;-80
2024/01/25 05:08:07;;;;;;;13.70;12.60;;;8.30;99.90;;;;;;5035580;28;20208;-80
2024/01/25 05:10:34;;;;;;;13.60;12.57;;;8.30;99.90;;;;;;5044248;28;20384;-80
2024/01/25 05:13:01;;;;;;;13.70;12.77;;;8.30;99.90;;;;;;5043965;28;20226;-80
2024/01/25 05:15:29;;;;;;;13.77;12.97;;;8.30;99.90;;;;;;5035557;28;20199;-81
2024/01/25 05:17:56;;;;;;;13.83;12.83;;;8.30;99.90;;;;;;5032273;28;20780;-80
2024/01/25 05:20:22;;;;;;;14.90;13.70;;;8.40;99.90;;;;;;5045687;28;20563;-80
2024/01/25 05:22:49;;;;;;;14.07;13.07;;;8.30;99.90;;;;;;5038852;28;20206;-81
2024/01/25 05:25:16;;;;;;;14.17;13.27;;;8.40;99.90;;;;;;5045930;28;20584;-80
2024/01/25 05:27:43;;;;;;;14.03;13.13;;;8.30;99.90;;;;;;5044446;28;20215;-80
2024/01/25 05:30:10;;;;;;;14.03;13.13;;;8.40;99.90;;;;;;5041758;28;20231;-81
2024/01/25 05:32:39;;;;;;;13.33;12.43;;;8.40;99.90;;;;;;5034954;28;20199;-80
2024/01/25 05:35:07;;;;;;;13.80;12.80;;;8.40;99.90;;;;;;5041764;28;20728;-81
2024/01/25 05:37:34;;;;;;;14.70;13.57;;;8.40;99.90;;;;;;5035033;28;20230;-80
2024/01/25 05:40:01;;;;;;;14.07;13.17;;;8.30;99.90;;;;;;5044278;28;20243;-80
2024/01/25 05:42:28;;;;;;;13.83;12.67;;;8.30;99.90;;;;;;5031833;28;20196;-81
2024/01/25 05:44:55;;;;;;;13.53;12.73;;;8.30;99.90;;;;;;5037164;28;20259;-81
2024/01/25 05:47:21;;;;;;;13.40;12.60;;;8.30;99.90;;;;;;5039804;28;20202;-81
2024/01/25 05:49:50;;;;;;;13.93;13.03;;;8.30;99.90;;;;;;5038949;28;20224;-80
2024/01/25 05:52:17;;;;;;;13.33;12.37;;;8.20;99.90;;;;;;5031547;28;20199;-80
2024/01/25 05:54:44;;;;;;;13.93;12.67;;;8.20;99.90;;;;;;5034405;28;20612;-81
2024/01/25 05:57:11;;;;;;;14.33;13.07;;;8.20;99.90;;;;;;5038722;28;20211;-80
2024/01/25 05:59:38;;;;;;;14.13;12.97;;;8.20;99.90;;;;;;5031036;28;20211;-80
2024/01/25 06:02:04;;;;;;;13.00;12.10;;;8.20;99.90;;;;;;5042745;28;20195;-81
2024/01/25 06:04:31;;;;;;;13.73;12.53;;;8.10;99.90;;;;;;5046925;28;20274;-81
2024/01/25 06:06:59;;;;;;;13.80;12.80;;;8.10;99.90;;;;;;5033045;28;20203;-81
2024/01/25 06:09:26;;;;;;;12.67;11.80;;;8.10;99.90;;;;;;5036827;28;20218;-81
2024/01/25 06:11:53;;;;;;;12.70;12.00;;;8.10;99.90;;;;;;5031209;28;20250;-80
2024/01/25 06:14:19;;;;;;;13.70;12.60;;;8.10;99.90;;;;;;5043861;28;20195;-82
2024/01/25 06:16:46;;;;;;;13.40;12.47;;;8.00;99.90;;;;;;5037578;28;20229;-80
2024/01/25 06:19:13;;;;;;;13.43;12.40;;;8.00;99.90;;;;;;5042189;28;20219;-80
2024/01/25 06:21:40;;;;;;;13.27;12.17;;;8.00;99.90;;;;;;5040433;28;20673;-80
2024/01/25 06:24:08;;;;;;;13.60;12.40;;;7.90;99.90;;;;;;5043986;28;20635;-80
2024/01/25 06:26:35;;;;;;;14.03;12.73;;;7.90;99.90;;;;;;5029857;28;20196;-81
2024/01/25 06:29:02;;;;;;;13.80;12.80;;;7.90;99.90;;;;;;5038872;28;20243;-80
2024/01/25 06:31:29;;;;;;;13.70;12.80;;;7.80;99.90;;;;;;5039535;28;20203;-80
2024/01/25 06:33:55;;;;;;;13.70;12.60;;;7.80;99.90;;;;;;5048260;28;20802;-80
2024/01/25 06:36:23;;;;;;;13.10;12.20;;;7.70;99.90;;;;;;5033136;28;20203;-80
2024/01/25 06:38:50;;;;;;;13.20;12.20;;;7.60;99.90;;;;;;5026150;28;20648;-80
2024/01/25 06:41:18;;;;;;;13.30;12.50;;;7.60;99.90;;;;;;5040782;28;20666;-80
2024/01/25 06:43:44;;;;;;;13.30;12.50;;;7.50;99.90;;;;;;5034643;28;20200;-80
2024/01/25 06:46:11;;;;;;;14.43;13.33;;;7.40;99.90;;;;;;5045524;28;20203;-80
2024/01/25 06:48:38;;;;;;;13.83;12.93;;;7.30;99.90;;;;;;5037930;28;20764;-80
2024/01/25 06:51:05;;;;;;;14.00;13.00;;;7.30;99.90;;;;;;5034855;28;20191;-80
2024/01/25 06:53:32;;;;;;;13.83;12.90;;;7.30;99.90;;;;;;5041570;28;20286;-80
2024/01/25 06:55:59;;;;;;;13.97;12.87;;;7.20;99.90;;;;;;5048375;28;20734;-80
2024/01/25 06:58:27;;;;;;;13.90;13.00;;;7.20;99.90;;;;;;5041001;28;20212;-80
2024/01/25 07:00:54;;;;;;;13.90;13.10;;;7.20;99.90;;;;;;5042336;28;20198;-80
2024/01/25 07:03:21;;;;;;;13.53;12.50;;;7.20;99.90;;;;;;5046803;28;20217;-78
2024/01/25 07:05:48;;;;;;;13.63;12.77;;;7.20;99.90;;;;;;5040030;28;20207;-80
2024/01/25 07:08:15;;;;;;;14.70;13.80;;;7.20;99.90;;;;;;5030252;28;20570;-80
2024/01/25 07:10:42;;;;;;;13.87;12.77;;;7.20;99.90;;;;;;5034753;28;20592;-80
2024/01/25 07:13:09;;;;;;;12.67;11.97;;;7.20;99.90;;;;;;5042849;28;20294;-79
2024/01/25 07:15:37;;;;;;;13.20;12.40;;;7.20;99.90;;;;;;5038071;28;20199;-79
2024/01/25 07:18:05;;;;;;;13.13;12.17;;;7.20;99.90;;;;;;5033695;28;20694;-80
2024/01/25 07:20:35;;;;;;;14.30;13.20;;;7.20;99.90;;;;;;5032266;28;20274;-83
2024/01/25 07:23:02;;;;;;;14.23;13.23;;;7.20;99.90;;;;;;5050199;28;20282;-84
2024/01/25 07:25:29;;;;;;;13.37;12.57;;;7.20;99.90;;;;;;5035160;28;20199;-83
2024/01/25 07:27:56;;;;;;;13.83;12.83;;;7.10;99.90;;;;;;5034711;28;20745;-83
2024/01/25 07:30:23;;;;;;;13.73;12.80;;;7.10;99.90;;;;;;5037472;28;20229;-83
2024/01/25 07:32:51;;;;;;;13.10;12.27;;;7.10;99.90;;;;;;5039799;28;20199;-83
2024/01/25 07:35:18;;;;;;;14.10;13.00;;;7.10;99.90;;;;;;5042646;28;20195;-83
2024/01/25 07:37:45;;;;;;;13.43;12.53;;;7.10;99.90;;;;;;5031548;28;20195;-80
2024/01/25 07:40:13;;;;;;;13.10;12.20;;;7.10;99.90;;;;;;5036664;28;20203;-80
2024/01/25 07:42:39;;;;;;;13.27;12.23;;;7.10;99.90;;;;;;5033450;28;20200;-80
2024/01/25 07:45:07;;;;;;;13.30;12.40;;;7.10;99.90;;;;;;5034025;28;20261;-80
2024/01/25 07:47:34;;;;;;;13.07;12.27;;;7.10;99.90;;;;;;5041389;28;20192;-80
2024/01/25 07:50:03;;;;;;;13.60;12.80;;;7.20;99.90;;;;;;5038012;28;20216;-80
2024/01/25 07:52:29;;;;;;;13.80;12.90;;;7.20;99.90;;;;;;5040432;28;20195;-80
2024/01/25 07:54:56;;;;;;;13.30;12.50;;;7.20;99.90;;;;;;5038899;28;20232;-81
2024/01/25 07:57:23;;;;;;;13.63;12.63;;;7.20;99.90;;;;;;5032894;28;20199;-81
2024/01/25 07:59:50;;;;;;;13.00;12.20;;;7.30;99.90;;;;;;5039542;28;20214;-80
2024/01/25 08:02:17;;;;;;;13.43;12.50;;;7.30;99.90;;;;;;5037973;28;20249;-80
2024/01/25 08:04:43;;;;;;;13.27;12.20;;;7.30;99.90;;;;;;5042216;28;20227;-80
2024/01/25 08:07:12;;;;;;;13.70;12.60;;;7.40;99.90;;;;;;5039175;28;20616;-80
2024/01/25 08:09:38;;;;;;;13.00;12.10;;;7.40;99.90;;;;;;5029928;28;20671;-80
2024/01/25 08:12:06;;;;;;;13.00;12.17;;;7.50;99.90;;;;;;5032883;28;20740;-80
2024/01/25 08:14:32;;;;;;;12.97;12.07;;;7.60;99.90;;;;;;5033973;28;20203;-80
2024/01/25 08:16:59;;;;;;;13.47;12.37;;;7.80;99.90;;;;;;5033103;28;20199;-81
2024/01/25 08:19:26;;;;;;;12.97;12.10;;;7.90;99.90;;;;;;5033116;28;20216;-80
2024/01/25 08:21:53;;;;;;;13.43;12.30;;;8.10;99.90;;;;;;5033027;28;20203;-80
2024/01/25 08:24:21;;;;;;;13.00;12.10;;;8.30;99.90;;;;;;5038589;28;20203;-80
2024/01/25 08:26:48;;;;;;;13.13;12.30;;;8.50;99.90;;;;;;5036183;28;20294;-81
2024/01/25 08:29:14;;;;;;;12.83;11.83;;;8.70;99.90;;;;;;5033463;28;20215;-81
2024/01/25 08:31:41;;;;;;;12.37;11.37;;;8.90;99.90;;;;;;5034220;28;20196;-81
2024/01/25 08:34:08;;;;;;;12.87;11.87;;;9.10;99.90;;;;;;5033959;28;20220;-81
2024/01/25 08:36:35;;;;;;;12.30;11.50;;;9.30;99.90;;;;;;5032538;28;20208;-81
2024/01/25 08:39:01;;;;;;;12.53;11.57;;;9.70;99.90;;;;;;5037847;28;20216;-81
2024/01/25 08:41:29;;;;;;;11.60;10.87;;;9.90;99.90;;;;;;5032690;28;20204;-81
2024/01/25 08:43:56;;;;;;;5.80;5.13;;;10.30;99.90;;;;;;5032310;28;20551;-81
2024/01/25 08:46:24;;;;;;;5.33;4.60;;;10.50;99.90;;;;;;5031968;28;20199;-81
2024/01/25 08:48:50;;;;;;;11.97;10.90;;;10.70;99.90;;;;;;5037945;28;20224;-81
2024/01/25 08:51:17;;;;;;;10.17;9.27;;;10.90;99.90;;;;;;5034312;28;20217;-81
2024/01/25 08:53:44;;;;;;;10.20;9.50;;;11.10;99.90;;;;;;5033478;28;20197;-81
2024/01/25 08:56:11;;;;;;;12.27;11.47;;;11.20;99.90;;;;;;5031949;28;20674;-81
2024/01/25 08:58:39;;;;;;;12.27;11.47;;;11.40;99.90;;;;;;5032016;28;20219;-81
2024/01/25 09:01:06;;;;;;;12.57;11.57;;;11.40;99.90;;;;;;5033645;28;20191;-81
2024/01/25 09:03:32;;;;;;;4.83;3.97;;;11.40;99.90;;;;;;5044332;28;20199;-81
2024/01/25 09:06:05;;;;;;;4.67;3.97;;;11.50;99.90;;;;;;5040552;28;20666;-82
2024/01/25 09:08:31;;;;;;;6.67;6.07;;;11.60;99.90;;;;;;5032361;28;20302;-81
2024/01/25 09:10:59;;;;;;;13.47;12.43;;;11.70;99.90;;;;;;5039721;28;20207;-81
2024/01/25 09:13:25;;;;;;;12.33;11.50;;;11.80;99.90;;;;;;5044465;28;20199;-82
2024/01/25 09:15:54;;;;;;;12.50;11.60;;;11.80;99.90;;;;;;5038309;28;20204;-81
2024/01/25 09:18:20;;;;;;;12.50;11.53;;;11.80;99.90;;;;;;5035491;28;20241;-81
2024/01/25 09:20:48;;;;;;;13.40;12.40;;;11.70;99.90;;;;;;5046822;28;20204;-80
2024/01/25 09:23:16;;;;;;;12.53;11.50;;;11.80;99.90;;;;;;5034445;28;20595;-80
2024/01/25 09:25:43;;;;;;;13.90;12.90;;;11.70;99.90;;;;;;5040693;28;20697;-80
2024/01/25 09:28:11;;;;;;;13.97;12.87;;;11.70;99.90;;;;;;5045271;28;20227;-80
2024/01/25 09:30:38;;;;;;;13.00;12.13;;;11.70;99.90;;;;;;5045355;28;20226;-81
2024/01/25 09:33:07;;;;;;;12.93;11.90;;;11.60;99.90;;;;;;5042826;28;20208;-80
2024/01/25 09:35:34;;;;;;;12.13;11.23;;;11.50;99.90;;;;;;5042390;28;20249;-80
2024/01/25 09:38:00;;;;;;;11.30;10.40;;;11.40;99.90;;;;;;5036553;28;20572;-80
2024/01/25 09:40:27;;;;;;;11.87;10.77;;;11.30;99.90;;;;;;5030509;28;20195;-81
2024/01/25 09:42:55;;;;;;;12.23;11.23;;;11.20;99.90;;;;;;5038448;28;20203;-80
2024/01/25 09:45:22;;;;;;;12.00;11.10;;;11.00;99.90;;;;;;5035124;28;20207;-80
2024/01/25 09:47:49;;;;;;;11.93;10.93;;;10.90;99.90;;;;;;5037405;28;20275;-81
2024/01/25 09:50:17;;;;;;;11.60;10.70;;;10.80;99.90;;;;;;5033896;28;20219;-81
2024/01/25 09:52:45;;;;;;;11.17;10.37;;;10.90;99.90;;;;;;5040408;28;20247;-79
2024/01/25 09:55:14;;;;;;;11.17;10.27;;;10.80;99.90;;;;;;5042694;28;20195;-80
2024/01/25 09:57:45;;;;;;;11.43;10.47;;;10.80;99.90;;;;;;5041148;28;20202;-81
2024/01/25 10:00:13;;;;;;;11.03;10.23;;;10.70;99.90;;;;;;5035286;28;20544;-82
2024/01/25 10:02:40;;;;;;;10.63;9.70;;;10.70;99.90;;;;;;5048649;28;20256;-81
2024/01/25 10:05:08;;;;;;;10.83;9.73;;;10.60;99.90;;;;;;5037372;28;20206;-82
2024/01/25 10:07:40;;;;;;;10.77;9.73;;;10.50;99.90;;;;;;5044420;28;20194;-81
2024/01/25 10:10:08;;;;;;;11.43;10.27;;;10.40;99.90;;;;;;5033920;28;20642;-80
2024/01/25 10:12:35;;;;;;;11.90;10.57;;;10.40;99.90;;;;;;5038642;28;20204;-81
2024/01/25 10:15:01;;;;;;;12.90;10.70;;;10.60;99.90;;;;;;5039373;28;20210;-82
2024/01/25 10:17:29;;;;;;;11.57;10.67;;;10.60;99.90;;;;;;5034792;28;20210;-81
2024/01/25 10:19:56;;;;;;;11.43;10.50;;;10.60;99.90;;;;;;5043422;28;20208;-82
2024/01/25 10:22:23;;;;;;;11.50;10.60;;;10.60;99.90;;;;;;5042969;28;21326;-78
2024/01/25 10:24:53;;;;;;;11.50;10.47;;;10.50;99.90;;;;;;5031779;28;20456;-81
2024/01/25 10:27:20;;;;;;;11.90;11.00;;;10.50;99.90;;;;;;5041293;28;20199;-79
2024/01/25 10:29:47;;;;;;;11.80;10.87;;;10.70;99.90;;;;;;5044021;28;20214;-80
2024/01/25 10:32:14;;;;;;;12.03;10.90;;;10.90;99.90;;;;;;5039654;28;20198;-80
2024/01/25 10:34:43;;;;;;;11.83;10.90;;;11.10;99.90;;;;;;5044771;28;20275;-80
2024/01/25 10:37:10;;;;;;;13.00;11.80;;;11.30;99.90;;;;;;5041232;28;20200;-80
2024/01/25 10:39:36;;;;;;;13.53;12.23;;;11.50;99.90;;;;;;5046965;28;20222;-80
2024/01/25 10:42:06;;;;;;;11.90;10.77;;;11.60;99.90;;;;;;5041185;28;20206;-79
2024/01/25 10:44:32;;;;;;;8.70;7.80;;;11.70;99.90;;;;;;5046156;28;20200;-79
2024/01/25 10:47:00;;;;;;;6.60;3.77;;;11.90;99.90;;;;;;5024986;28;20204;-80
2024/01/25 10:49:27;;;;;;;11.53;10.63;;;11.90;99.90;;;;;;5040126;28;20318;-81
2024/01/25 10:51:54;;;;;;;11.40;10.60;;;11.90;99.90;;;;;;5033242;28;20224;-81
2024/01/25 10:54:21;;;;;;;11.07;9.97;;;11.90;99.90;;;;;;5032725;28;20207;-80
2024/01/25 10:56:48;;;;;;;12.47;11.40;;;11.80;99.90;;;;;;5048541;28;20662;-80
2024/01/25 10:59:17;;;;;;;13.87;12.67;;;11.70;99.90;;;;;;5041044;28;20619;-80
2024/01/25 11:01:45;;;;;;;13.33;12.17;;;11.60;99.90;;;;;;5044360;28;20191;-79
2024/01/25 11:04:17;;;;;;;12.13;11.03;;;11.40;99.90;;;;;;5039193;28;20206;-80
2024/01/25 11:06:45;;;;;;;11.47;10.47;;;11.40;99.90;;;;;;5042893;28;20203;-79
2024/01/25 11:09:19;;;;;;;12.83;11.83;;;11.40;99.90;;;;;;5031061;28;20247;-81
2024/01/25 11:11:48;;;;;;;11.00;10.10;;;11.60;99.90;;;;;;5042161;28;20217;-80
2024/01/25 11:14:17;;;;;;;10.63;9.83;;;11.60;99.90;;;;;;5035457;28;20192;-79
2024/01/25 11:16:46;;;;;;;7.67;5.60;;;11.60;99.90;;;;;;5035628;28;20263;-80
2024/01/25 11:19:18;;;;;;;13.10;11.93;;;11.50;99.90;;;;;;5033938;28;20834;-80
2024/01/25 11:21:46;;;;;;;11.73;10.73;;;11.50;99.90;;;;;;5039683;28;20196;-80
2024/01/25 11:24:14;;;;;;;10.37;9.40;;;11.50;99.90;;;;;;5043042;28;20258;-79
2024/01/25 11:26:41;;;;;;;9.10;6.37;;;11.60;99.90;;;;;;5042091;28;20283;-80
2024/01/25 11:29:08;;;;;;;7.03;3.93;;;11.80;99.90;;;;;;5031340;28;20584;-79
2024/01/25 11:31:36;;;;;;;6.47;3.80;;;11.90;99.90;;;;;;5032798;28;20211;-79
2024/01/25 11:34:03;;;;;;;10.63;9.83;;;12.00;99.90;;;;;;5037374;28;20203;-80
2024/01/25 11:36:30;;;;;;;11.83;4.10;;;12.20;99.90;;;;;;5038943;28;20233;-81
2024/01/25 11:38:58;;;;;;;10.63;8.90;;;12.10;99.90;;;;;;5037413;28;20233;-81
2024/01/25 11:41:25;;;;;;;10.90;9.83;;;11.90;99.90;;;;;;5035884;28;20200;-80
2024/01/25 11:43:52;;;;;;;7.03;6.40;;;11.90;99.90;;;;;;5037016;28;20195;-82
2024/01/25 11:46:19;;;;;;;12.53;11.33;;;11.90;99.90;;;;;;5042745;28;20211;-81
2024/01/25 11:48:47;;;;;;;9.00;7.60;;;11.90;99.90;;;;;;5049607;28;20223;-80
2024/01/25 11:51:14;;;;;;;9.47;7.83;;;11.90;99.90;;;;;;5042426;28;20346;-79
2024/01/25 11:53:41;;;;;;;14.60;13.37;;;11.90;99.90;;;;;;5035741;28;20270;-81
2024/01/25 11:56:12;;;;;;;15.07;13.97;;;11.90;99.90;;;;;;5041989;28;20214;-81
2024/01/25 11:58:39;;;;;;;11.20;10.20;;;11.90;99.90;;;;;;5052619;28;20648;-81
2024/01/25 12:01:07;;;;;;;11.57;10.70;;;11.90;99.90;;;;;;5045434;28;20204;-81
2024/01/25 12:03:36;;;;;;;11.33;10.53;;;11.80;99.90;;;;;;5044008;28;20754;-81
2024/01/25 12:06:05;;;;;;;12.87;10.90;;;11.80;99.90;;;;;;5041015;28;20210;-79
2024/01/25 12:08:33;;;;;;;12.50;11.10;;;11.70;99.90;;;;;;5044000;28;20644;-80
2024/01/25 12:11:07;;;;;;;11.97;10.93;;;11.60;99.90;;;;;;5046543;28;20238;-79
2024/01/25 12:13:35;;;;;;;11.10;10.00;;;11.50;99.90;;;;;;5049059;28;20309;-80
2024/01/25 12:16:03;;;;;;;11.33;10.37;;;11.40;99.90;;;;;;5047955;28;20237;-80
2024/01/25 12:18:31;;;;;;;11.20;10.20;;;11.30;99.90;;;;;;5041706;28;20231;-80
2024/01/25 12:20:59;;;;;;;10.80;9.87;;;11.30;99.90;;;;;;5035368;28;20612;-80
2024/01/25 12:23:33;;;;;;;10.93;10.13;;;11.30;99.90;;;;;;5035455;28;20200;-80
2024/01/25 12:26:01;;;;;;;12.23;11.27;;;11.40;99.90;;;;;;5044809;28;20198;-79
2024/01/25 12:28:29;;;;;;;12.30;11.23;;;11.50;99.90;;;;;;5043435;28;20317;-80
2024/01/25 12:30:55;;;;;;;11.23;10.43;;;11.60;99.90;;;;;;5045040;28;20306;-80
2024/01/25 12:33:22;;;;;;;11.10;10.10;;;11.70;99.90;;;;;;5041955;28;20256;-80
2024/01/25 12:35:49;;;;;;;10.90;10.10;;;11.80;99.90;;;;;;5046789;28;20202;-80